sensor_id;sensor_type;location;lat;lon;timestamp;P1;durP1;ratioP1;P2;durP2;ratioP2
3795;SDS011;1913;50.660;7.834;2024-01-15T00:01:01;25.50;;;10.93;;
3795;SDS011;1913;50.660;7.834;2024-01-15T00:03:27;27.50;;;11.33;;
3795;SDS011;1913;50.660;7.834;2024-01-15T00:05:52;31.97;;;13.00;;
3795;SDS011;1913;50.660;7.834;2024-01-15T00:08:17;26.10;;;11.40;;
3795;SDS011;1913;50.660;7.834;2024-01-15T00:10:42;30.50;;;11.77;;
3795;SDS011;1913;50.660;7.834;2024-01-15T00:13:07;30.57;;;13.20;;
3795;SDS011;1913;50.660;7.834;2024-01-15T00:15:33;35.10;;;12.70;;
3795;SDS011;1913;50.660;7.834;2024-01-15T00:17:58;33.13;;;12.97;;
3795;SDS011;1913;50.660;7.834;2024-01-15T00:20:23;31.27;;;12.33;;
3795;SDS011;1913;50.660;7.834;2024-01-15T00:22:48;25.70;;;11.17;;
3795;SDS011;1913;50.660;7.834;2024-01-15T00:25:14;37.00;;;13.83;;
3795;SDS011;1913;50.660;7.834;2024-01-15T00:27:39;29.10;;;11.90;;
3795;SDS011;1913;50.660;7.834;2024-01-15T00:30:04;31.23;;;12.90;;
3795;SDS011;1913;50.660;7.834;2024-01-15T00:32:29;33.83;;;13.10;;
3795;SDS011;1913;50.660;7.834;2024-01-15T00:34:55;33.00;;;13.20;;
3795;SDS011;1913;50.660;7.834;2024-01-15T00:37:20;26.90;;;12.33;;
3795;SDS011;1913;50.660;7.834;2024-01-15T00:39:45;33.33;;;12.80;;
3795;SDS011;1913;50.660;7.834;2024-01-15T00:42:11;40.43;;;14.40;;
3795;SDS011;1913;50.660;7.834;2024-01-15T00:44:36;29.13;;;13.20;;
3795;SDS011;1913;50.660;7.834;2024-01-15T00:47:01;26.87;;;11.77;;
3795;SDS011;1913;50.660;7.834;2024-01-15T00:49:26;32.43;;;12.77;;
3795;SDS011;1913;50.660;7.834;2024-01-15T00:51:52;30.13;;;12.10;;
3795;SDS011;1913;50.660;7.834;2024-01-15T00:54:17;38.53;;;12.57;;
3795;SDS011;1913;50.660;7.834;2024-01-15T00:56:42;28.07;;;12.37;;
3795;SDS011;1913;50.660;7.834;2024-01-15T00:59:07;28.43;;;11.73;;
3795;SDS011;1913;50.660;7.834;2024-01-15T01:01:35;33.37;;;12.70;;
3795;SDS011;1913;50.660;7.834;2024-01-15T01:04:00;29.30;;;12.47;;
3795;SDS011;1913;50.660;7.834;2024-01-15T01:06:25;30.70;;;12.20;;
3795;SDS011;1913;50.660;7.834;2024-01-15T01:08:50;35.13;;;12.70;;
3795;SDS011;1913;50.660;7.834;2024-01-15T01:11:16;31.10;;;12.30;;
3795;SDS011;1913;50.660;7.834;2024-01-15T01:13:41;29.10;;;11.40;;
3795;SDS011;1913;50.660;7.834;2024-01-15T01:16:06;30.60;;;11.80;;
3795;SDS011;1913;50.660;7.834;2024-01-15T01:18:32;34.83;;;12.50;;
3795;SDS011;1913;50.660;7.834;2024-01-15T01:20:57;37.80;;;13.33;;
3795;SDS011;1913;50.660;7.834;2024-01-15T01:23:22;32.97;;;12.50;;
3795;SDS011;1913;50.660;7.834;2024-01-15T01:25:47;30.10;;;12.30;;
3795;SDS011;1913;50.660;7.834;2024-01-15T01:28:12;35.27;;;12.07;;
3795;SDS011;1913;50.660;7.834;2024-01-15T01:30:37;31.93;;;13.07;;
3795;SDS011;1913;50.660;7.834;2024-01-15T01:33:03;30.20;;;13.30;;
3795;SDS011;1913;50.660;7.834;2024-01-15T01:35:28;29.20;;;12.73;;
3795;SDS011;1913;50.660;7.834;2024-01-15T01:37:53;27.23;;;11.80;;
3795;SDS011;1913;50.660;7.834;2024-01-15T01:40:18;33.60;;;12.50;;
3795;SDS011;1913;50.660;7.834;2024-01-15T01:42:43;30.30;;;11.53;;
3795;SDS011;1913;50.660;7.834;2024-01-15T01:45:09;29.40;;;11.50;;
3795;SDS011;1913;50.660;7.834;2024-01-15T01:47:34;30.30;;;12.67;;
3795;SDS011;1913;50.660;7.834;2024-01-15T01:49:59;31.73;;;11.90;;
3795;SDS011;1913;50.660;7.834;2024-01-15T01:52:24;31.50;;;12.43;;
3795;SDS011;1913;50.660;7.834;2024-01-15T01:54:49;34.50;;;12.07;;
3795;SDS011;1913;50.660;7.834;2024-01-15T01:57:15;30.83;;;11.37;;
3795;SDS011;1913;50.660;7.834;2024-01-15T01:59:41;29.67;;;12.57;;
3795;SDS011;1913;50.660;7.834;2024-01-15T02:02:07;32.60;;;12.07;;
3795;SDS011;1913;50.660;7.834;2024-01-15T02:04:32;30.90;;;11.90;;
3795;SDS011;1913;50.660;7.834;2024-01-15T02:06:58;23.97;;;9.80;;
3795;SDS011;1913;50.660;7.834;2024-01-15T02:09:23;24.83;;;11.17;;
3795;SDS011;1913;50.660;7.834;2024-01-15T02:11:48;29.60;;;11.90;;
3795;SDS011;1913;50.660;7.834;2024-01-15T02:14:14;25.47;;;11.33;;
3795;SDS011;1913;50.660;7.834;2024-01-15T02:16:39;21.77;;;10.33;;
3795;SDS011;1913;50.660;7.834;2024-01-15T02:19:04;30.77;;;12.50;;
3795;SDS011;1913;50.660;7.834;2024-01-15T02:21:31;39.10;;;12.50;;
3795;SDS011;1913;50.660;7.834;2024-01-15T02:23:56;31.10;;;13.87;;
3795;SDS011;1913;50.660;7.834;2024-01-15T02:26:21;28.83;;;11.57;;
3795;SDS011;1913;50.660;7.834;2024-01-15T02:28:47;29.27;;;12.83;;
3795;SDS011;1913;50.660;7.834;2024-01-15T02:31:12;34.33;;;12.90;;
3795;SDS011;1913;50.660;7.834;2024-01-15T02:33:37;33.63;;;12.97;;
3795;SDS011;1913;50.660;7.834;2024-01-15T02:36:03;27.70;;;11.97;;
3795;SDS011;1913;50.660;7.834;2024-01-15T02:38:28;37.93;;;13.30;;
3795;SDS011;1913;50.660;7.834;2024-01-15T02:40:53;32.40;;;12.77;;
3795;SDS011;1913;50.660;7.834;2024-01-15T02:43:18;30.90;;;13.20;;
3795;SDS011;1913;50.660;7.834;2024-01-15T02:45:44;33.37;;;13.47;;
3795;SDS011;1913;50.660;7.834;2024-01-15T02:48:09;29.93;;;12.23;;
3795;SDS011;1913;50.660;7.834;2024-01-15T02:50:35;30.50;;;12.70;;
3795;SDS011;1913;50.660;7.834;2024-01-15T02:53:00;29.60;;;13.03;;
3795;SDS011;1913;50.660;7.834;2024-01-15T02:55:25;32.97;;;14.00;;
3795;SDS011;1913;50.660;7.834;2024-01-15T02:57:50;34.80;;;12.80;;
3795;SDS011;1913;50.660;7.834;2024-01-15T03:00:15;32.13;;;14.40;;
3795;SDS011;1913;50.660;7.834;2024-01-15T03:02:41;34.50;;;13.63;;
3795;SDS011;1913;50.660;7.834;2024-01-15T03:05:08;32.23;;;13.43;;
3795;SDS011;1913;50.660;7.834;2024-01-15T03:07:33;40.93;;;14.67;;
3795;SDS011;1913;50.660;7.834;2024-01-15T03:09:58;36.57;;;12.90;;
3795;SDS011;1913;50.660;7.834;2024-01-15T03:12:24;38.47;;;14.33;;
3795;SDS011;1913;50.660;7.834;2024-01-15T03:14:49;39.40;;;14.47;;
3795;SDS011;1913;50.660;7.834;2024-01-15T03:17:14;35.40;;;13.47;;
3795;SDS011;1913;50.660;7.834;2024-01-15T03:19:39;33.33;;;12.83;;
3795;SDS011;1913;50.660;7.834;2024-01-15T03:22:04;33.43;;;14.40;;
3795;SDS011;1913;50.660;7.834;2024-01-15T03:24:31;31.00;;;13.70;;
3795;SDS011;1913;50.660;7.834;2024-01-15T03:26:56;42.13;;;16.67;;
3795;SDS011;1913;50.660;7.834;2024-01-15T03:29:22;40.00;;;14.43;;
3795;SDS011;1913;50.660;7.834;2024-01-15T03:31:47;41.60;;;15.37;;
3795;SDS011;1913;50.660;7.834;2024-01-15T03:34:12;45.00;;;14.80;;
3795;SDS011;1913;50.660;7.834;2024-01-15T03:36:37;39.33;;;15.20;;
3795;SDS011;1913;50.660;7.834;2024-01-15T03:39:02;39.13;;;15.33;;
3795;SDS011;1913;50.660;7.834;2024-01-15T03:41:27;46.03;;;16.37;;
3795;SDS011;1913;50.660;7.834;2024-01-15T03:43:53;50.77;;;16.93;;
3795;SDS011;1913;50.660;7.834;2024-01-15T03:46:18;48.67;;;15.63;;
3795;SDS011;1913;50.660;7.834;2024-01-15T03:48:43;36.07;;;15.27;;
3795;SDS011;1913;50.660;7.834;2024-01-15T03:51:08;42.37;;;16.00;;
3795;SDS011;1913;50.660;7.834;2024-01-15T03:53:33;52.13;;;17.27;;
3795;SDS011;1913;50.660;7.834;2024-01-15T03:55:58;40.90;;;16.17;;
3795;SDS011;1913;50.660;7.834;2024-01-15T03:58:24;44.50;;;16.47;;
3795;SDS011;1913;50.660;7.834;2024-01-15T04:00:49;42.97;;;16.13;;
3795;SDS011;1913;50.660;7.834;2024-01-15T04:03:14;41.10;;;15.60;;
3795;SDS011;1913;50.660;7.834;2024-01-15T04:05:39;43.73;;;15.30;;
3795;SDS011;1913;50.660;7.834;2024-01-15T04:08:05;46.17;;;17.77;;
3795;SDS011;1913;50.660;7.834;2024-01-15T04:10:30;40.70;;;15.33;;
3795;SDS011;1913;50.660;7.834;2024-01-15T04:12:55;45.60;;;16.07;;
3795;SDS011;1913;50.660;7.834;2024-01-15T04:15:20;42.23;;;14.13;;
3795;SDS011;1913;50.660;7.834;2024-01-15T04:17:45;35.30;;;14.03;;
3795;SDS011;1913;50.660;7.834;2024-01-15T04:20:11;35.33;;;14.47;;
3795;SDS011;1913;50.660;7.834;2024-01-15T04:22:36;41.00;;;15.13;;
3795;SDS011;1913;50.660;7.834;2024-01-15T04:25:01;35.30;;;14.00;;
3795;SDS011;1913;50.660;7.834;2024-01-15T04:27:26;38.23;;;15.63;;
3795;SDS011;1913;50.660;7.834;2024-01-15T04:29:52;48.07;;;16.27;;
3795;SDS011;1913;50.660;7.834;2024-01-15T04:32:17;44.07;;;15.03;;
3795;SDS011;1913;50.660;7.834;2024-01-15T04:34:43;48.27;;;15.70;;
3795;SDS011;1913;50.660;7.834;2024-01-15T04:37:08;31.73;;;13.80;;
3795;SDS011;1913;50.660;7.834;2024-01-15T04:39:33;41.37;;;14.47;;
3795;SDS011;1913;50.660;7.834;2024-01-15T04:41:58;41.57;;;15.30;;
3795;SDS011;1913;50.660;7.834;2024-01-15T04:44:23;36.43;;;15.90;;
3795;SDS011;1913;50.660;7.834;2024-01-15T04:46:49;39.53;;;15.30;;
3795;SDS011;1913;50.660;7.834;2024-01-15T04:49:14;40.40;;;15.77;;
3795;SDS011;1913;50.660;7.834;2024-01-15T04:51:39;43.43;;;15.40;;
3795;SDS011;1913;50.660;7.834;2024-01-15T04:54:04;38.30;;;15.07;;
3795;SDS011;1913;50.660;7.834;2024-01-15T04:56:29;32.87;;;15.10;;
3795;SDS011;1913;50.660;7.834;2024-01-15T04:58:55;48.60;;;16.93;;
3795;SDS011;1913;50.660;7.834;2024-01-15T05:01:20;37.80;;;15.00;;
3795;SDS011;1913;50.660;7.834;2024-01-15T05:03:45;39.27;;;15.93;;
3795;SDS011;1913;50.660;7.834;2024-01-15T05:06:10;37.00;;;15.90;;
3795;SDS011;1913;50.660;7.834;2024-01-15T05:08:38;39.07;;;15.70;;
3795;SDS011;1913;50.660;7.834;2024-01-15T05:11:04;45.20;;;17.20;;
3795;SDS011;1913;50.660;7.834;2024-01-15T05:13:29;44.47;;;16.90;;
3795;SDS011;1913;50.660;7.834;2024-01-15T05:15:54;43.23;;;16.00;;
3795;SDS011;1913;50.660;7.834;2024-01-15T05:18:19;43.27;;;16.53;;
3795;SDS011;1913;50.660;7.834;2024-01-15T05:20:44;38.67;;;16.17;;
3795;SDS011;1913;50.660;7.834;2024-01-15T05:23:10;37.17;;;15.77;;
3795;SDS011;1913;50.660;7.834;2024-01-15T05:25:35;41.03;;;15.53;;
3795;SDS011;1913;50.660;7.834;2024-01-15T05:28:00;39.33;;;15.90;;
3795;SDS011;1913;50.660;7.834;2024-01-15T05:30:26;33.37;;;14.70;;
3795;SDS011;1913;50.660;7.834;2024-01-15T05:32:51;35.23;;;14.73;;
3795;SDS011;1913;50.660;7.834;2024-01-15T05:35:16;40.20;;;15.20;;
3795;SDS011;1913;50.660;7.834;2024-01-15T05:37:43;38.53;;;15.50;;
3795;SDS011;1913;50.660;7.834;2024-01-15T05:40:09;30.93;;;13.10;;
3795;SDS011;1913;50.660;7.834;2024-01-15T05:42:34;38.67;;;14.97;;
3795;SDS011;1913;50.660;7.834;2024-01-15T05:44:59;37.13;;;14.17;;
3795;SDS011;1913;50.660;7.834;2024-01-15T05:47:25;30.03;;;14.70;;
3795;SDS011;1913;50.660;7.834;2024-01-15T05:49:50;29.80;;;14.23;;
3795;SDS011;1913;50.660;7.834;2024-01-15T05:52:15;31.93;;;13.50;;
3795;SDS011;1913;50.660;7.834;2024-01-15T05:54:41;35.30;;;14.73;;
3795;SDS011;1913;50.660;7.834;2024-01-15T05:57:06;34.17;;;14.27;;
3795;SDS011;1913;50.660;7.834;2024-01-15T05:59:31;35.20;;;13.63;;
3795;SDS011;1913;50.660;7.834;2024-01-15T06:01:59;33.33;;;14.27;;
3795;SDS011;1913;50.660;7.834;2024-01-15T06:04:24;38.07;;;14.10;;
3795;SDS011;1913;50.660;7.834;2024-01-15T06:06:49;36.03;;;13.70;;
3795;SDS011;1913;50.660;7.834;2024-01-15T06:09:14;34.17;;;15.50;;
3795;SDS011;1913;50.660;7.834;2024-01-15T06:11:39;31.20;;;13.60;;
3795;SDS011;1913;50.660;7.834;2024-01-15T06:14:05;29.77;;;13.10;;
3795;SDS011;1913;50.660;7.834;2024-01-15T06:16:30;28.37;;;13.73;;
3795;SDS011;1913;50.660;7.834;2024-01-15T06:18:55;35.20;;;13.00;;
3795;SDS011;1913;50.660;7.834;2024-01-15T06:21:20;29.03;;;13.50;;
3795;SDS011;1913;50.660;7.834;2024-01-15T06:23:45;33.53;;;12.53;;
3795;SDS011;1913;50.660;7.834;2024-01-15T06:26:13;34.50;;;13.20;;
3795;SDS011;1913;50.660;7.834;2024-01-15T06:28:39;28.90;;;13.93;;
3795;SDS011;1913;50.660;7.834;2024-01-15T06:31:05;35.43;;;13.43;;
3795;SDS011;1913;50.660;7.834;2024-01-15T06:33:31;33.27;;;14.70;;
3795;SDS011;1913;50.660;7.834;2024-01-15T06:35:56;45.73;;;15.57;;
3795;SDS011;1913;50.660;7.834;2024-01-15T06:38:21;31.00;;;12.23;;
3795;SDS011;1913;50.660;7.834;2024-01-15T06:40:46;35.57;;;14.13;;
3795;SDS011;1913;50.660;7.834;2024-01-15T06:43:13;39.70;;;14.90;;
3795;SDS011;1913;50.660;7.834;2024-01-15T06:45:38;37.37;;;15.43;;
3795;SDS011;1913;50.660;7.834;2024-01-15T06:48:03;31.30;;;12.37;;
3795;SDS011;1913;50.660;7.834;2024-01-15T06:50:29;33.07;;;13.30;;
3795;SDS011;1913;50.660;7.834;2024-01-15T06:52:54;36.30;;;13.90;;
3795;SDS011;1913;50.660;7.834;2024-01-15T06:55:19;32.30;;;13.73;;
3795;SDS011;1913;50.660;7.834;2024-01-15T06:57:44;33.90;;;13.23;;
3795;SDS011;1913;50.660;7.834;2024-01-15T07:00:09;34.23;;;14.17;;
3795;SDS011;1913;50.660;7.834;2024-01-15T07:02:35;34.73;;;13.00;;
3795;SDS011;1913;50.660;7.834;2024-01-15T07:05:00;27.77;;;13.30;;
3795;SDS011;1913;50.660;7.834;2024-01-15T07:07:25;36.57;;;12.70;;
3795;SDS011;1913;50.660;7.834;2024-01-15T07:09:54;31.00;;;13.47;;
3795;SDS011;1913;50.660;7.834;2024-01-15T07:12:19;33.97;;;13.60;;
3795;SDS011;1913;50.660;7.834;2024-01-15T07:14:44;42.00;;;14.10;;
3795;SDS011;1913;50.660;7.834;2024-01-15T07:17:10;30.20;;;13.40;;
3795;SDS011;1913;50.660;7.834;2024-01-15T07:19:35;39.83;;;13.90;;
3795;SDS011;1913;50.660;7.834;2024-01-15T07:22:00;27.30;;;13.27;;
3795;SDS011;1913;50.660;7.834;2024-01-15T07:24:25;29.80;;;13.43;;
3795;SDS011;1913;50.660;7.834;2024-01-15T07:26:50;32.23;;;12.73;;
3795;SDS011;1913;50.660;7.834;2024-01-15T07:29:16;34.27;;;14.20;;
3795;SDS011;1913;50.660;7.834;2024-01-15T07:31:46;32.37;;;13.10;;
3795;SDS011;1913;50.660;7.834;2024-01-15T07:34:12;31.47;;;12.67;;
3795;SDS011;1913;50.660;7.834;2024-01-15T07:36:37;34.60;;;12.23;;
3795;SDS011;1913;50.660;7.834;2024-01-15T07:39:02;30.43;;;13.60;;
3795;SDS011;1913;50.660;7.834;2024-01-15T07:41:27;33.67;;;13.43;;
3795;SDS011;1913;50.660;7.834;2024-01-15T07:43:53;27.47;;;11.97;;
3795;SDS011;1913;50.660;7.834;2024-01-15T07:46:18;27.30;;;12.90;;
3795;SDS011;1913;50.660;7.834;2024-01-15T07:48:43;33.20;;;12.93;;
3795;SDS011;1913;50.660;7.834;2024-01-15T07:51:08;33.03;;;13.07;;
3795;SDS011;1913;50.660;7.834;2024-01-15T07:53:34;28.57;;;12.90;;
3795;SDS011;1913;50.660;7.834;2024-01-15T07:55:59;28.13;;;12.57;;
3795;SDS011;1913;50.660;7.834;2024-01-15T07:58:24;30.17;;;12.30;;
3795;SDS011;1913;50.660;7.834;2024-01-15T08:00:49;31.60;;;13.70;;
3795;SDS011;1913;50.660;7.834;2024-01-15T08:03:14;29.00;;;13.53;;
3795;SDS011;1913;50.660;7.834;2024-01-15T08:05:40;30.80;;;12.13;;
3795;SDS011;1913;50.660;7.834;2024-01-15T08:08:05;29.73;;;12.20;;
3795;SDS011;1913;50.660;7.834;2024-01-15T08:10:30;29.23;;;12.40;;
3795;SDS011;1913;50.660;7.834;2024-01-15T08:12:55;27.70;;;12.50;;
3795;SDS011;1913;50.660;7.834;2024-01-15T08:15:21;25.73;;;11.60;;
3795;SDS011;1913;50.660;7.834;2024-01-15T08:17:46;26.70;;;12.10;;
3795;SDS011;1913;50.660;7.834;2024-01-15T08:20:11;26.10;;;11.60;;
3795;SDS011;1913;50.660;7.834;2024-01-15T08:22:38;35.80;;;12.77;;
3795;SDS011;1913;50.660;7.834;2024-01-15T08:25:03;32.30;;;12.20;;
3795;SDS011;1913;50.660;7.834;2024-01-15T08:27:28;27.27;;;11.50;;
3795;SDS011;1913;50.660;7.834;2024-01-15T08:29:54;27.00;;;11.07;;
3795;SDS011;1913;50.660;7.834;2024-01-15T08:32:19;28.07;;;12.00;;
3795;SDS011;1913;50.660;7.834;2024-01-15T08:34:44;33.67;;;14.63;;
3795;SDS011;1913;50.660;7.834;2024-01-15T08:37:11;26.90;;;12.20;;
3795;SDS011;1913;50.660;7.834;2024-01-15T08:39:36;22.47;;;10.50;;
3795;SDS011;1913;50.660;7.834;2024-01-15T08:42:03;29.80;;;11.90;;
3795;SDS011;1913;50.660;7.834;2024-01-15T08:44:28;22.63;;;11.50;;
3795;SDS011;1913;50.660;7.834;2024-01-15T08:46:54;22.70;;;11.77;;
3795;SDS011;1913;50.660;7.834;2024-01-15T08:49:19;25.73;;;10.97;;
3795;SDS011;1913;50.660;7.834;2024-01-15T08:51:44;22.97;;;10.17;;
3795;SDS011;1913;50.660;7.834;2024-01-15T08:54:09;23.33;;;9.53;;
3795;SDS011;1913;50.660;7.834;2024-01-15T08:56:34;23.30;;;10.23;;
3795;SDS011;1913;50.660;7.834;2024-01-15T08:59:00;21.50;;;9.83;;
3795;SDS011;1913;50.660;7.834;2024-01-15T09:01:25;26.23;;;11.27;;
3795;SDS011;1913;50.660;7.834;2024-01-15T09:03:50;25.03;;;10.73;;
3795;SDS011;1913;50.660;7.834;2024-01-15T09:06:16;25.87;;;10.67;;
3795;SDS011;1913;50.660;7.834;2024-01-15T09:08:41;26.50;;;11.37;;
3795;SDS011;1913;50.660;7.834;2024-01-15T09:11:06;29.90;;;12.43;;
3795;SDS011;1913;50.660;7.834;2024-01-15T09:13:31;28.23;;;10.50;;
3795;SDS011;1913;50.660;7.834;2024-01-15T09:15:58;27.27;;;11.50;;
3795;SDS011;1913;50.660;7.834;2024-01-15T09:18:23;29.47;;;11.20;;
3795;SDS011;1913;50.660;7.834;2024-01-15T09:20:48;20.30;;;10.27;;
3795;SDS011;1913;50.660;7.834;2024-01-15T09:23:13;28.50;;;11.90;;
3795;SDS011;1913;50.660;7.834;2024-01-15T09:25:38;28.73;;;12.37;;
3795;SDS011;1913;50.660;7.834;2024-01-15T09:28:04;27.57;;;11.30;;
3795;SDS011;1913;50.660;7.834;2024-01-15T09:30:29;25.10;;;12.23;;
3795;SDS011;1913;50.660;7.834;2024-01-15T09:32:54;22.10;;;9.80;;
3795;SDS011;1913;50.660;7.834;2024-01-15T09:35:19;19.33;;;8.20;;
3795;SDS011;1913;50.660;7.834;2024-01-15T09:37:44;28.90;;;11.60;;
3795;SDS011;1913;50.660;7.834;2024-01-15T09:40:12;26.07;;;10.57;;
3795;SDS011;1913;50.660;7.834;2024-01-15T09:42:39;17.67;;;8.73;;
3795;SDS011;1913;50.660;7.834;2024-01-15T09:45:04;27.67;;;10.30;;
3795;SDS011;1913;50.660;7.834;2024-01-15T09:47:30;31.07;;;11.00;;
3795;SDS011;1913;50.660;7.834;2024-01-15T09:49:55;27.83;;;11.30;;
3795;SDS011;1913;50.660;7.834;2024-01-15T09:52:23;21.97;;;10.00;;
3795;SDS011;1913;50.660;7.834;2024-01-15T09:54:48;29.87;;;11.80;;
3795;SDS011;1913;50.660;7.834;2024-01-15T09:57:14;18.50;;;8.67;;
3795;SDS011;1913;50.660;7.834;2024-01-15T09:59:39;18.33;;;8.83;;
3795;SDS011;1913;50.660;7.834;2024-01-15T10:02:06;18.47;;;8.77;;
3795;SDS011;1913;50.660;7.834;2024-01-15T10:04:32;27.70;;;11.50;;
3795;SDS011;1913;50.660;7.834;2024-01-15T10:06:57;24.83;;;10.97;;
3795;SDS011;1913;50.660;7.834;2024-01-15T10:09:22;28.17;;;10.97;;
3795;SDS011;1913;50.660;7.834;2024-01-15T10:11:48;23.97;;;10.70;;
3795;SDS011;1913;50.660;7.834;2024-01-15T10:14:13;22.03;;;10.47;;
3795;SDS011;1913;50.660;7.834;2024-01-15T10:16:39;27.83;;;10.50;;
3795;SDS011;1913;50.660;7.834;2024-01-15T10:19:04;25.73;;;10.40;;
3795;SDS011;1913;50.660;7.834;2024-01-15T10:21:31;23.63;;;10.20;;
3795;SDS011;1913;50.660;7.834;2024-01-15T10:23:56;24.17;;;10.63;;
3795;SDS011;1913;50.660;7.834;2024-01-15T10:26:24;25.40;;;9.90;;
3795;SDS011;1913;50.660;7.834;2024-01-15T10:28:50;21.33;;;10.20;;
3795;SDS011;1913;50.660;7.834;2024-01-15T10:31:16;25.17;;;9.63;;
3795;SDS011;1913;50.660;7.834;2024-01-15T10:33:42;22.50;;;10.47;;
3795;SDS011;1913;50.660;7.834;2024-01-15T10:36:07;27.30;;;10.93;;
3795;SDS011;1913;50.660;7.834;2024-01-15T10:38:34;23.67;;;9.33;;
3795;SDS011;1913;50.660;7.834;2024-01-15T10:40:59;21.27;;;10.30;;
3795;SDS011;1913;50.660;7.834;2024-01-15T10:43:24;22.57;;;10.80;;
3795;SDS011;1913;50.660;7.834;2024-01-15T10:45:50;30.00;;;11.20;;
3795;SDS011;1913;50.660;7.834;2024-01-15T10:48:18;30.80;;;11.80;;
3795;SDS011;1913;50.660;7.834;2024-01-15T10:50:44;30.23;;;10.87;;
3795;SDS011;1913;50.660;7.834;2024-01-15T10:53:11;26.20;;;11.63;;
3795;SDS011;1913;50.660;7.834;2024-01-15T10:55:36;27.33;;;11.87;;
3795;SDS011;1913;50.660;7.834;2024-01-15T10:58:02;26.83;;;11.60;;
3795;SDS011;1913;50.660;7.834;2024-01-15T11:00:28;31.70;;;12.10;;
3795;SDS011;1913;50.660;7.834;2024-01-15T11:02:54;29.03;;;11.90;;
3795;SDS011;1913;50.660;7.834;2024-01-15T11:05:22;37.13;;;12.50;;
3795;SDS011;1913;50.660;7.834;2024-01-15T11:07:48;31.53;;;11.70;;
3795;SDS011;1913;50.660;7.834;2024-01-15T11:12:58;25.30;;;11.70;;
3795;SDS011;1913;50.660;7.834;2024-01-15T11:15:23;29.47;;;11.40;;
3795;SDS011;1913;50.660;7.834;2024-01-15T11:18:01;24.37;;;10.23;;
3795;SDS011;1913;50.660;7.834;2024-01-15T11:20:26;26.13;;;10.97;;
3795;SDS011;1913;50.660;7.834;2024-01-15T11:22:51;23.20;;;10.03;;
3795;SDS011;1913;50.660;7.834;2024-01-15T11:25:20;15.67;;;7.67;;
3795;SDS011;1913;50.660;7.834;2024-01-15T11:27:49;10.83;;;6.00;;
3795;SDS011;1913;50.660;7.834;2024-01-15T11:30:16;7.17;;;5.47;;
3795;SDS011;1913;50.660;7.834;2024-01-15T11:32:42;11.93;;;6.00;;
3795;SDS011;1913;50.660;7.834;2024-01-15T11:35:08;13.30;;;5.70;;
3795;SDS011;1913;50.660;7.834;2024-01-15T11:40:23;11.10;;;6.30;;
3795;SDS011;1913;50.660;7.834;2024-01-15T11:43:03;20.10;;;10.23;;
3795;SDS011;1913;50.660;7.834;2024-01-15T11:45:29;20.30;;;9.33;;
3795;SDS011;1913;50.660;7.834;2024-01-15T11:50:32;8.63;;;6.20;;
3795;SDS011;1913;50.660;7.834;2024-01-15T11:53:01;11.00;;;6.27;;
3795;SDS011;1913;50.660;7.834;2024-01-15T11:55:28;8.23;;;6.20;;
3795;SDS011;1913;50.660;7.834;2024-01-15T11:57:54;10.00;;;6.23;;
3795;SDS011;1913;50.660;7.834;2024-01-15T12:00:20;9.87;;;5.70;;
3795;SDS011;1913;50.660;7.834;2024-01-15T12:02:46;7.67;;;5.80;;
3795;SDS011;1913;50.660;7.834;2024-01-15T12:05:12;8.40;;;6.00;;
3795;SDS011;1913;50.660;7.834;2024-01-15T12:07:39;7.13;;;5.73;;
3795;SDS011;1913;50.660;7.834;2024-01-15T12:10:07;4.90;;;4.17;;
3795;SDS011;1913;50.660;7.834;2024-01-15T12:12:42;7.30;;;5.13;;
3795;SDS011;1913;50.660;7.834;2024-01-15T12:15:10;6.03;;;4.67;;
3795;SDS011;1913;50.660;7.834;2024-01-15T12:17:35;6.40;;;5.13;;
3795;SDS011;1913;50.660;7.834;2024-01-15T12:20:02;7.50;;;5.57;;
3795;SDS011;1913;50.660;7.834;2024-01-15T12:22:27;6.90;;;5.40;;
3795;SDS011;1913;50.660;7.834;2024-01-15T12:24:53;7.13;;;4.70;;
3795;SDS011;1913;50.660;7.834;2024-01-15T12:27:18;8.60;;;5.53;;
3795;SDS011;1913;50.660;7.834;2024-01-15T12:29:43;6.50;;;4.97;;
3795;SDS011;1913;50.660;7.834;2024-01-15T12:32:08;10.93;;;7.97;;
3795;SDS011;1913;50.660;7.834;2024-01-15T12:34:34;12.20;;;6.93;;
3795;SDS011;1913;50.660;7.834;2024-01-15T12:36:59;11.83;;;8.20;;
3795;SDS011;1913;50.660;7.834;2024-01-15T12:39:24;9.70;;;7.27;;
3795;SDS011;1913;50.660;7.834;2024-01-15T12:41:49;11.40;;;8.77;;
3795;SDS011;1913;50.660;7.834;2024-01-15T12:44:15;9.50;;;6.73;;
3795;SDS011;1913;50.660;7.834;2024-01-15T12:46:40;14.37;;;8.00;;
3795;SDS011;1913;50.660;7.834;2024-01-15T12:49:05;10.43;;;7.73;;
3795;SDS011;1913;50.660;7.834;2024-01-15T12:51:34;15.07;;;7.50;;
3795;SDS011;1913;50.660;7.834;2024-01-15T12:53:59;9.60;;;7.07;;
3795;SDS011;1913;50.660;7.834;2024-01-15T12:56:24;10.70;;;7.70;;
3795;SDS011;1913;50.660;7.834;2024-01-15T12:58:49;10.23;;;7.10;;
3795;SDS011;1913;50.660;7.834;2024-01-15T13:01:15;12.27;;;8.03;;
3795;SDS011;1913;50.660;7.834;2024-01-15T13:03:40;16.10;;;8.13;;
3795;SDS011;1913;50.660;7.834;2024-01-15T13:06:05;14.33;;;8.60;;
3795;SDS011;1913;50.660;7.834;2024-01-15T13:08:30;10.60;;;7.60;;
3795;SDS011;1913;50.660;7.834;2024-01-15T13:10:56;13.60;;;8.80;;
3795;SDS011;1913;50.660;7.834;2024-01-15T13:13:22;12.37;;;8.00;;
3795;SDS011;1913;50.660;7.834;2024-01-15T13:15:47;14.37;;;8.17;;
3795;SDS011;1913;50.660;7.834;2024-01-15T13:18:13;18.30;;;9.80;;
3795;SDS011;1913;50.660;7.834;2024-01-15T13:20:38;14.00;;;9.00;;
3795;SDS011;1913;50.660;7.834;2024-01-15T13:23:03;11.20;;;8.00;;
3795;SDS011;1913;50.660;7.834;2024-01-15T13:25:29;17.23;;;8.00;;
3795;SDS011;1913;50.660;7.834;2024-01-15T13:27:54;13.27;;;8.50;;
3795;SDS011;1913;50.660;7.834;2024-01-15T13:30:19;16.77;;;8.50;;
3795;SDS011;1913;50.660;7.834;2024-01-15T13:32:44;13.67;;;7.10;;
3795;SDS011;1913;50.660;7.834;2024-01-15T13:35:09;15.50;;;8.73;;
3795;SDS011;1913;50.660;7.834;2024-01-15T13:37:37;23.97;;;7.57;;
3795;SDS011;1913;50.660;7.834;2024-01-15T13:40:03;17.27;;;7.53;;
3795;SDS011;1913;50.660;7.834;2024-01-15T13:42:28;9.40;;;6.73;;
3795;SDS011;1913;50.660;7.834;2024-01-15T13:44:53;11.80;;;6.63;;
3795;SDS011;1913;50.660;7.834;2024-01-15T13:47:19;11.40;;;7.10;;
3795;SDS011;1913;50.660;7.834;2024-01-15T13:49:44;14.17;;;6.93;;
3795;SDS011;1913;50.660;7.834;2024-01-15T13:52:09;16.20;;;7.90;;
3795;SDS011;1913;50.660;7.834;2024-01-15T13:54:35;26.30;;;9.57;;
3795;SDS011;1913;50.660;7.834;2024-01-15T13:57:00;35.87;;;12.27;;
3795;SDS011;1913;50.660;7.834;2024-01-15T13:59:26;29.70;;;13.10;;
3795;SDS011;1913;50.660;7.834;2024-01-15T14:01:51;24.10;;;9.57;;
3795;SDS011;1913;50.660;7.834;2024-01-15T14:04:16;20.90;;;9.70;;
3795;SDS011;1913;50.660;7.834;2024-01-15T14:06:41;16.67;;;8.70;;
3795;SDS011;1913;50.660;7.834;2024-01-15T14:09:07;15.20;;;8.17;;
3795;SDS011;1913;50.660;7.834;2024-01-15T14:11:35;16.47;;;10.00;;
3795;SDS011;1913;50.660;7.834;2024-01-15T14:14:00;13.67;;;8.30;;
3795;SDS011;1913;50.660;7.834;2024-01-15T14:16:25;17.40;;;10.03;;
3795;SDS011;1913;50.660;7.834;2024-01-15T14:18:50;12.33;;;6.60;;
3795;SDS011;1913;50.660;7.834;2024-01-15T14:21:15;10.37;;;7.07;;
3795;SDS011;1913;50.660;7.834;2024-01-15T14:23:41;17.87;;;7.23;;
3795;SDS011;1913;50.660;7.834;2024-01-15T14:26:06;11.20;;;6.23;;
3795;SDS011;1913;50.660;7.834;2024-01-15T14:28:31;14.63;;;6.47;;
3795;SDS011;1913;50.660;7.834;2024-01-15T14:30:56;14.27;;;7.57;;
3795;SDS011;1913;50.660;7.834;2024-01-15T14:33:24;10.93;;;6.40;;
3795;SDS011;1913;50.660;7.834;2024-01-15T14:35:49;13.57;;;7.30;;
3795;SDS011;1913;50.660;7.834;2024-01-15T14:38:14;16.60;;;7.90;;
3795;SDS011;1913;50.660;7.834;2024-01-15T14:40:39;16.60;;;6.87;;
3795;SDS011;1913;50.660;7.834;2024-01-15T14:43:04;10.90;;;7.20;;
3795;SDS011;1913;50.660;7.834;2024-01-15T14:45:30;11.40;;;7.27;;
3795;SDS011;1913;50.660;7.834;2024-01-15T14:47:55;16.30;;;7.00;;
3795;SDS011;1913;50.660;7.834;2024-01-15T14:50:21;13.77;;;6.73;;